Terminal Aerodrome Forecast
Issued by NWS Charleston, WV

Current Version | Previous Version | Text Only | Print | Product List | Glossary Off
Versions: 1 2 3 4 5 6 7 8 9 10 11 12 13 14 15 16 17 18 19 20 21 22 23 24 25 26 27

000
FTUS41 KRLX 280100 AAA
TAFHTS
TAF AMD
KHTS 280135Z 2802/2824 00000KT P6SM SCT200
     FM280800 00000KT 5SM BR SCT200
     FM281000 00000KT 1 1/2SM BR BKN002
     FM281200 00000KT 5SM BR SCT200
     FM281300 00000KT P6SM SCT150
     FM281600 VRB03KT P6SM SCT045=

USA.gov is the U.S. government's official web portal to all federal, state and local government web resources and services.